Thornton, Illinois
Current Conditions -  °F | °C
As of 11:55 AM on Tuesday 21 Oct 2014 (Local Time) from KIGQ Reporting Station
Overcast Overcast  
Wind Chill: 51°   Ceiling: 2200
Heat Index: 51°   Visibility: 10mi
Dew Point: 44°   Wind: 14mph
Humidity: 76%   Direction: 340°NNW
Pressure: 30.15"   Gusts: 21mph
Location:  41.57°N, 87.61°W
Report Text: KIGQ 211655Z AUTO 34012G18KT 10SM SCT017 BKN022 OVC027 11/07 A3015 RMK AO2 T01070067
Loading
Personal Weather Stations






























Interactive Weather Map
Tropical Storm Tracking
New forecast layout! Learn more

10-Day Weather Forecast

Advertisements
Track Severe Weather on mobile